sensor_id;sensor_type;location;lat;lon;timestamp;pressure;altitude;pressure_sealevel;temperature;humidity
39295;BME280;52361;52.100;5.248;2022-12-10T00:02:52;100741.0;;;1.94;100.0
39295;BME280;52361;52.100;5.248;2022-12-10T00:04:30;100738.0;;;1.89;100.0
39295;BME280;52361;52.100;5.248;2022-12-10T00:06:08;100742.0;;;1.86;100.0
39295;BME280;52361;52.100;5.248;2022-12-10T00:07:47;100734.0;;;1.88;100.0
39295;BME280;52361;52.100;5.248;2022-12-10T00:11:02;100733.0;;;1.9;100.0
39295;BME280;52361;52.100;5.248;2022-12-10T00:12:39;100738.0;;;1.82;100.0
39295;BME280;52361;52.100;5.248;2022-12-10T00:14:16;100743.0;;;1.92;100.0
39295;BME280;52361;52.100;5.248;2022-12-10T00:17:29;100737.0;;;1.99;100.0
39295;BME280;52361;52.100;5.248;2022-12-10T00:20:42;100741.0;;;2.02;100.0
39295;BME280;52361;52.100;5.248;2022-12-10T00:25:33;100742.0;;;1.86;100.0
39295;BME280;52361;52.100;5.248;2022-12-10T00:27:10;100737.0;;;1.84;100.0
39295;BME280;52361;52.100;5.248;2022-12-10T00:28:47;100741.0;;;1.73;100.0
39295;BME280;52361;52.100;5.248;2022-12-10T00:32:02;100735.0;;;1.87;100.0
39295;BME280;52361;52.100;5.248;2022-12-10T00:33:42;100731.0;;;1.9;100.0
39295;BME280;52361;52.100;5.248;2022-12-10T00:35:20;100734.0;;;1.85;100.0
39295;BME280;52361;52.100;5.248;2022-12-10T00:40:11;100737.0;;;1.76;100.0
39295;BME280;52361;52.100;5.248;2022-12-10T00:41:47;100744.0;;;1.7;100.0
39295;BME280;52361;52.100;5.248;2022-12-10T00:43:24;100743.0;;;1.8;100.0
39295;BME280;52361;52.100;5.248;2022-12-10T00:46:37;100741.0;;;1.64;100.0
39295;BME280;52361;52.100;5.248;2022-12-10T00:48:14;100739.0;;;1.61;100.0
39295;BME280;52361;52.100;5.248;2022-12-10T00:49:50;100746.0;;;1.56;100.0
39295;BME280;52361;52.100;5.248;2022-12-10T00:53:03;100744.0;;;1.54;100.0
39295;BME280;52361;52.100;5.248;2022-12-10T00:54:39;100751.0;;;1.67;100.0
39295;BME280;52361;52.100;5.248;2022-12-10T00:57:52;100755.0;;;1.69;100.0
39295;BME280;52361;52.100;5.248;2022-12-10T00:59:28;100756.0;;;1.57;100.0
39295;BME280;52361;52.100;5.248;2022-12-10T01:02:46;100758.0;;;1.46;100.0
39295;BME280;52361;52.100;5.248;2022-12-10T01:04:22;100756.0;;;1.53;100.0
39295;BME280;52361;52.100;5.248;2022-12-10T01:07:44;100758.0;;;1.64;100.0
39295;BME280;52361;52.100;5.248;2022-12-10T01:09:23;100757.0;;;1.66;100.0
39295;BME280;52361;52.100;5.248;2022-12-10T01:11:01;100759.0;;;1.63;100.0
39295;BME280;52361;52.100;5.248;2022-12-10T01:12:37;100757.0;;;1.56;100.0
39295;BME280;52361;52.100;5.248;2022-12-10T01:15:53;100757.0;;;1.65;100.0
39295;BME280;52361;52.100;5.248;2022-12-10T01:17:29;100762.0;;;1.61;100.0
39295;BME280;52361;52.100;5.248;2022-12-10T01:19:06;100769.0;;;1.49;100.0
39295;BME280;52361;52.100;5.248;2022-12-10T01:22:19;100767.0;;;1.51;100.0
39295;BME280;52361;52.100;5.248;2022-12-10T01:23:56;100769.0;;;1.49;100.0
39295;BME280;52361;52.100;5.248;2022-12-10T01:25:33;100768.0;;;1.48;100.0
39295;BME280;52361;52.100;5.248;2022-12-10T01:27:09;100759.0;;;1.52;100.0
39295;BME280;52361;52.100;5.248;2022-12-10T01:30:23;100768.0;;;1.42;100.0
39295;BME280;52361;52.100;5.248;2022-12-10T01:31:59;100766.0;;;1.38;100.0
39295;BME280;52361;52.100;5.248;2022-12-10T01:33:36;100768.0;;;1.41;100.0
39295;BME280;52361;52.100;5.248;2022-12-10T01:36:50;100774.0;;;1.58;100.0
39295;BME280;52361;52.100;5.248;2022-12-10T01:38:28;100781.0;;;1.58;100.0
39295;BME280;52361;52.100;5.248;2022-12-10T01:40:04;100782.0;;;1.48;100.0
39295;BME280;52361;52.100;5.248;2022-12-10T01:41:44;100782.0;;;1.51;100.0
39295;BME280;52361;52.100;5.248;2022-12-10T01:45:04;100778.0;;;1.48;100.0
39295;BME280;52361;52.100;5.248;2022-12-10T01:46:43;100784.0;;;1.53;100.0
39295;BME280;52361;52.100;5.248;2022-12-10T01:48:21;100783.0;;;1.55;100.0
39295;BME280;52361;52.100;5.248;2022-12-10T01:51:37;100778.0;;;1.59;100.0
39295;BME280;52361;52.100;5.248;2022-12-10T01:53:15;100781.0;;;1.56;100.0
39295;BME280;52361;52.100;5.248;2022-12-10T01:54:51;100784.0;;;1.6;100.0
39295;BME280;52361;52.100;5.248;2022-12-10T01:56:28;100791.0;;;1.56;100.0
39295;BME280;52361;52.100;5.248;2022-12-10T01:59:48;100789.0;;;1.41;100.0
39295;BME280;52361;52.100;5.248;2022-12-10T02:01:31;100790.0;;;1.42;100.0
39295;BME280;52361;52.100;5.248;2022-12-10T02:03:18;100798.0;;;1.42;100.0
39295;BME280;52361;52.100;5.248;2022-12-10T02:05:11;100792.0;;;1.5;100.0
39295;BME280;52361;52.100;5.248;2022-12-10T02:06:54;100793.0;;;1.54;100.0
39295;BME280;52361;52.100;5.248;2022-12-10T02:10:28;100793.0;;;1.61;100.0
39295;BME280;52361;52.100;5.248;2022-12-10T02:12:15;100794.0;;;1.63;100.0
39295;BME280;52361;52.100;5.248;2022-12-10T02:13:59;100794.0;;;1.5;100.0
39295;BME280;52361;52.100;5.248;2022-12-10T02:15:43;100794.0;;;1.53;100.0
39295;BME280;52361;52.100;5.248;2022-12-10T02:17:25;100790.0;;;1.34;100.0
39295;BME280;52361;52.100;5.248;2022-12-10T02:21:01;100794.0;;;1.23;100.0
39295;BME280;52361;52.100;5.248;2022-12-10T02:22:45;100791.0;;;1.32;100.0
39295;BME280;52361;52.100;5.248;2022-12-10T02:24:26;100795.0;;;1.27;100.0
39295;BME280;52361;52.100;5.248;2022-12-10T02:26:11;100787.0;;;1.36;100.0
39295;BME280;52361;52.100;5.248;2022-12-10T02:27:55;100786.0;;;1.42;100.0
39295;BME280;52361;52.100;5.248;2022-12-10T02:31:17;100788.0;;;1.47;100.0
39295;BME280;52361;52.100;5.248;2022-12-10T02:32:56;100793.0;;;1.4;100.0
39295;BME280;52361;52.100;5.248;2022-12-10T02:34:37;100795.0;;;1.4;100.0
39295;BME280;52361;52.100;5.248;2022-12-10T02:36:18;100793.0;;;1.47;100.0
39295;BME280;52361;52.100;5.248;2022-12-10T02:39:52;100797.0;;;1.42;100.0
39295;BME280;52361;52.100;5.248;2022-12-10T02:41:33;100806.0;;;1.31;100.0
39295;BME280;52361;52.100;5.248;2022-12-10T02:43:12;100799.0;;;1.42;100.0
39295;BME280;52361;52.100;5.248;2022-12-10T02:44:50;100800.0;;;1.35;100.0
39295;BME280;52361;52.100;5.248;2022-12-10T02:48:09;100793.0;;;1.26;100.0
39295;BME280;52361;52.100;5.248;2022-12-10T02:49:47;100792.0;;;1.28;100.0
39295;BME280;52361;52.100;5.248;2022-12-10T02:51:25;100797.0;;;1.28;100.0
39295;BME280;52361;52.100;5.248;2022-12-10T02:53:02;100795.0;;;1.08;100.0
39295;BME280;52361;52.100;5.248;2022-12-10T02:56:22;100796.0;;;1.24;100.0
39295;BME280;52361;52.100;5.248;2022-12-10T02:58:10;100794.0;;;1.33;100.0
39295;BME280;52361;52.100;5.248;2022-12-10T03:00:02;100795.0;;;1.34;100.0
39295;BME280;52361;52.100;5.248;2022-12-10T03:01:49;100790.0;;;1.46;100.0
39295;BME280;52361;52.100;5.248;2022-12-10T03:03:37;100790.0;;;1.56;100.0
39295;BME280;52361;52.100;5.248;2022-12-10T03:07:08;100791.0;;;1.61;100.0
39295;BME280;52361;52.100;5.248;2022-12-10T03:08:49;100793.0;;;1.4;100.0
39295;BME280;52361;52.100;5.248;2022-12-10T03:10:31;100792.0;;;1.3;100.0
39295;BME280;52361;52.100;5.248;2022-12-10T03:12:16;100792.0;;;1.21;100.0
39295;BME280;52361;52.100;5.248;2022-12-10T03:13:59;100794.0;;;1.13;100.0
39295;BME280;52361;52.100;5.248;2022-12-10T03:17:19;100793.0;;;1.39;100.0
39295;BME280;52361;52.100;5.248;2022-12-10T03:18:58;100791.0;;;1.54;100.0
39295;BME280;52361;52.100;5.248;2022-12-10T03:20:41;100791.0;;;1.65;100.0
39295;BME280;52361;52.100;5.248;2022-12-10T03:22:19;100789.0;;;1.61;100.0
39295;BME280;52361;52.100;5.248;2022-12-10T03:25:33;100786.0;;;1.74;100.0
39295;BME280;52361;52.100;5.248;2022-12-10T03:27:12;100787.0;;;1.62;100.0
39295;BME280;52361;52.100;5.248;2022-12-10T03:28:54;100785.0;;;1.56;100.0
39295;BME280;52361;52.100;5.248;2022-12-10T03:30:35;100792.0;;;1.62;100.0
39295;BME280;52361;52.100;5.248;2022-12-10T03:33:55;100792.0;;;1.7;100.0
39295;BME280;52361;52.100;5.248;2022-12-10T03:35:32;100785.0;;;1.76;100.0
39295;BME280;52361;52.100;5.248;2022-12-10T03:37:09;100789.0;;;1.54;100.0
39295;BME280;52361;52.100;5.248;2022-12-10T03:40:24;100791.0;;;1.56;100.0
39295;BME280;52361;52.100;5.248;2022-12-10T03:42:01;100782.0;;;1.48;100.0
39295;BME280;52361;52.100;5.248;2022-12-10T03:43:49;100786.0;;;1.56;100.0
39295;BME280;52361;52.100;5.248;2022-12-10T03:45:26;100784.0;;;1.56;100.0
39295;BME280;52361;52.100;5.248;2022-12-10T03:48:42;100790.0;;;1.56;100.0
39295;BME280;52361;52.100;5.248;2022-12-10T03:50:18;100786.0;;;1.53;100.0
39295;BME280;52361;52.100;5.248;2022-12-10T03:51:54;100784.0;;;1.59;100.0
39295;BME280;52361;52.100;5.248;2022-12-10T03:53:30;100785.0;;;1.63;100.0
39295;BME280;52361;52.100;5.248;2022-12-10T03:56:44;100782.0;;;1.62;100.0
39295;BME280;52361;52.100;5.248;2022-12-10T03:58:20;100785.0;;;1.68;100.0
39295;BME280;52361;52.100;5.248;2022-12-10T03:59:56;100783.0;;;1.68;100.0
39295;BME280;52361;52.100;5.248;2022-12-10T04:03:08;100787.0;;;1.76;100.0
39295;BME280;52361;52.100;5.248;2022-12-10T04:04:44;100794.0;;;1.82;100.0
39295;BME280;52361;52.100;5.248;2022-12-10T04:06:21;100791.0;;;1.65;100.0
39295;BME280;52361;52.100;5.248;2022-12-10T04:09:33;100783.0;;;1.66;100.0
39295;BME280;52361;52.100;5.248;2022-12-10T04:11:10;100791.0;;;1.65;100.0
39295;BME280;52361;52.100;5.248;2022-12-10T04:16:27;100787.0;;;1.64;100.0
39295;BME280;52361;52.100;5.248;2022-12-10T04:18:05;100782.0;;;1.67;100.0
39295;BME280;52361;52.100;5.248;2022-12-10T04:19:42;100780.0;;;1.71;100.0
39295;BME280;52361;52.100;5.248;2022-12-10T04:26:54;100789.0;;;1.82;100.0
39295;BME280;52361;52.100;5.248;2022-12-10T04:29:08;100782.0;;;1.86;100.0
39295;BME280;52361;52.100;5.248;2022-12-10T04:32:23;100785.0;;;1.79;100.0
39295;BME280;52361;52.100;5.248;2022-12-10T04:34:00;100791.0;;;1.69;100.0
39295;BME280;52361;52.100;5.248;2022-12-10T04:35:36;100787.0;;;1.62;100.0
39295;BME280;52361;52.100;5.248;2022-12-10T04:38:49;100783.0;;;1.74;100.0
39295;BME280;52361;52.100;5.248;2022-12-10T04:40:26;100783.0;;;1.78;100.0
39295;BME280;52361;52.100;5.248;2022-12-10T04:42:02;100782.0;;;1.89;100.0
39295;BME280;52361;52.100;5.248;2022-12-10T04:45:15;100786.0;;;1.78;100.0
39295;BME280;52361;52.100;5.248;2022-12-10T04:46:52;100794.0;;;1.73;100.0
39295;BME280;52361;52.100;5.248;2022-12-10T04:48:28;100795.0;;;1.73;100.0
39295;BME280;52361;52.100;5.248;2022-12-10T04:50:05;100800.0;;;1.78;100.0
39295;BME280;52361;52.100;5.248;2022-12-10T04:53:18;100806.0;;;1.69;100.0
39295;BME280;52361;52.100;5.248;2022-12-10T04:54:54;100795.0;;;1.75;100.0
39295;BME280;52361;52.100;5.248;2022-12-10T04:56:31;100800.0;;;1.66;100.0
39295;BME280;52361;52.100;5.248;2022-12-10T04:59:44;100801.0;;;1.59;100.0
39295;BME280;52361;52.100;5.248;2022-12-10T05:01:20;100800.0;;;1.45;100.0
39295;BME280;52361;52.100;5.248;2022-12-10T05:02:56;100801.0;;;1.47;100.0
39295;BME280;52361;52.100;5.248;2022-12-10T05:06:13;100800.0;;;1.45;100.0
39295;BME280;52361;52.100;5.248;2022-12-10T05:07:50;100799.0;;;1.53;100.0
39295;BME280;52361;52.100;5.248;2022-12-10T05:09:26;100797.0;;;1.53;100.0
39295;BME280;52361;52.100;5.248;2022-12-10T05:11:05;100797.0;;;1.56;100.0
39295;BME280;52361;52.100;5.248;2022-12-10T05:14:19;100801.0;;;1.45;100.0
39295;BME280;52361;52.100;5.248;2022-12-10T05:15:55;100797.0;;;1.47;100.0
39295;BME280;52361;52.100;5.248;2022-12-10T05:17:33;100800.0;;;1.36;100.0
39295;BME280;52361;52.100;5.248;2022-12-10T05:20:46;100800.0;;;1.37;100.0
39295;BME280;52361;52.100;5.248;2022-12-10T05:23:43;100803.0;;;1.33;100.0
39295;BME280;52361;52.100;5.248;2022-12-10T05:25:20;100801.0;;;1.51;100.0
39295;BME280;52361;52.100;5.248;2022-12-10T05:26:57;100798.0;;;1.41;100.0
39295;BME280;52361;52.100;5.248;2022-12-10T05:28:35;100800.0;;;1.54;100.0
39295;BME280;52361;52.100;5.248;2022-12-10T05:30:12;100805.0;;;1.45;100.0
39295;BME280;52361;52.100;5.248;2022-12-10T05:31:49;100802.0;;;1.57;100.0
39295;BME280;52361;52.100;5.248;2022-12-10T05:35:04;100798.0;;;1.56;100.0
39295;BME280;52361;52.100;5.248;2022-12-10T05:36:41;100798.0;;;1.61;100.0
39295;BME280;52361;52.100;5.248;2022-12-10T05:38:17;100800.0;;;1.63;100.0
39295;BME280;52361;52.100;5.248;2022-12-10T05:41:31;100803.0;;;1.61;100.0
39295;BME280;52361;52.100;5.248;2022-12-10T05:43:09;100801.0;;;1.53;100.0
39295;BME280;52361;52.100;5.248;2022-12-10T05:44:45;100803.0;;;1.48;100.0
39295;BME280;52361;52.100;5.248;2022-12-10T05:48:04;100809.0;;;1.68;100.0
39295;BME280;52361;52.100;5.248;2022-12-10T05:49:41;100807.0;;;1.61;100.0
39295;BME280;52361;52.100;5.248;2022-12-10T05:51:19;100810.0;;;1.58;100.0
39295;BME280;52361;52.100;5.248;2022-12-10T05:54:33;100811.0;;;1.55;100.0
39295;BME280;52361;52.100;5.248;2022-12-10T05:56:10;100811.0;;;1.41;100.0
39295;BME280;52361;52.100;5.248;2022-12-10T05:57:48;100808.0;;;1.48;100.0
39295;BME280;52361;52.100;5.248;2022-12-10T05:59:24;100810.0;;;1.47;100.0
39295;BME280;52361;52.100;5.248;2022-12-10T06:02:43;100811.0;;;1.56;100.0
39295;BME280;52361;52.100;5.248;2022-12-10T06:04:19;100815.0;;;1.63;100.0
39295;BME280;52361;52.100;5.248;2022-12-10T06:05:55;100817.0;;;1.61;100.0
39295;BME280;52361;52.100;5.248;2022-12-10T06:07:32;100816.0;;;1.58;100.0
39295;BME280;52361;52.100;5.248;2022-12-10T06:10:49;100818.0;;;1.62;100.0
39295;BME280;52361;52.100;5.248;2022-12-10T06:12:25;100819.0;;;1.7;100.0
39295;BME280;52361;52.100;5.248;2022-12-10T06:14:02;100819.0;;;1.59;100.0
39295;BME280;52361;52.100;5.248;2022-12-10T06:17:16;100820.0;;;1.61;100.0
39295;BME280;52361;52.100;5.248;2022-12-10T06:18:53;100815.0;;;1.61;100.0
39295;BME280;52361;52.100;5.248;2022-12-10T06:20:30;100817.0;;;1.49;100.0
39295;BME280;52361;52.100;5.248;2022-12-10T06:22:06;100820.0;;;1.58;100.0
39295;BME280;52361;52.100;5.248;2022-12-10T06:25:21;100815.0;;;1.58;100.0
39295;BME280;52361;52.100;5.248;2022-12-10T06:26:57;100823.0;;;1.53;100.0
39295;BME280;52361;52.100;5.248;2022-12-10T06:28:33;100828.0;;;1.54;100.0
39295;BME280;52361;52.100;5.248;2022-12-10T06:31:47;100826.0;;;1.58;100.0
39295;BME280;52361;52.100;5.248;2022-12-10T06:33:24;100824.0;;;1.48;100.0
39295;BME280;52361;52.100;5.248;2022-12-10T06:35:00;100823.0;;;1.51;100.0
39295;BME280;52361;52.100;5.248;2022-12-10T06:38:13;100827.0;;;1.55;100.0
39295;BME280;52361;52.100;5.248;2022-12-10T06:39:50;100826.0;;;1.55;100.0
39295;BME280;52361;52.100;5.248;2022-12-10T06:41:26;100831.0;;;1.56;100.0
39295;BME280;52361;52.100;5.248;2022-12-10T06:43:02;100832.0;;;1.55;100.0
39295;BME280;52361;52.100;5.248;2022-12-10T06:46:17;100830.0;;;1.57;100.0
39295;BME280;52361;52.100;5.248;2022-12-10T06:47:54;100837.0;;;1.49;100.0
39295;BME280;52361;52.100;5.248;2022-12-10T06:49:30;100832.0;;;1.45;100.0
39295;BME280;52361;52.100;5.248;2022-12-10T06:52:43;100831.0;;;1.44;100.0
39295;BME280;52361;52.100;5.248;2022-12-10T06:54:19;100834.0;;;1.4;100.0
39295;BME280;52361;52.100;5.248;2022-12-10T06:55:57;100843.0;;;1.34;100.0
39295;BME280;52361;52.100;5.248;2022-12-10T06:59:10;100841.0;;;1.3;100.0
39295;BME280;52361;52.100;5.248;2022-12-10T07:00:46;100850.0;;;1.31;100.0
39295;BME280;52361;52.100;5.248;2022-12-10T07:02:22;100843.0;;;1.24;100.0
39295;BME280;52361;52.100;5.248;2022-12-10T07:03:58;100855.0;;;1.35;100.0
39295;BME280;52361;52.100;5.248;2022-12-10T07:07:09;100851.0;;;1.36;100.0
39295;BME280;52361;52.100;5.248;2022-12-10T07:08:46;100857.0;;;1.28;100.0
39295;BME280;52361;52.100;5.248;2022-12-10T07:10:23;100855.0;;;1.37;100.0
39295;BME280;52361;52.100;5.248;2022-12-10T07:13:37;100860.0;;;1.36;100.0
39295;BME280;52361;52.100;5.248;2022-12-10T07:15:13;100858.0;;;1.46;100.0
39295;BME280;52361;52.100;5.248;2022-12-10T07:16:50;100862.0;;;1.41;100.0
39295;BME280;52361;52.100;5.248;2022-12-10T07:20:05;100868.0;;;1.44;100.0
39295;BME280;52361;52.100;5.248;2022-12-10T07:21:42;100870.0;;;1.37;100.0
39295;BME280;52361;52.100;5.248;2022-12-10T07:23:20;100876.0;;;1.18;100.0
39295;BME280;52361;52.100;5.248;2022-12-10T07:24:57;100873.0;;;1.33;100.0
39295;BME280;52361;52.100;5.248;2022-12-10T07:28:12;100880.0;;;1.35;100.0
39295;BME280;52361;52.100;5.248;2022-12-10T07:29:49;100883.0;;;1.36;100.0
39295;BME280;52361;52.100;5.248;2022-12-10T07:31:26;100880.0;;;1.48;100.0
39295;BME280;52361;52.100;5.248;2022-12-10T07:34:40;100887.0;;;1.42;100.0
39295;BME280;52361;52.100;5.248;2022-12-10T07:36:16;100889.0;;;1.49;100.0
39295;BME280;52361;52.100;5.248;2022-12-10T07:37:53;100891.0;;;1.32;100.0
39295;BME280;52361;52.100;5.248;2022-12-10T07:39:29;100887.0;;;1.34;100.0
39295;BME280;52361;52.100;5.248;2022-12-10T07:42:44;100886.0;;;1.39;100.0
39295;BME280;52361;52.100;5.248;2022-12-10T07:44:23;100887.0;;;1.42;100.0
39295;BME280;52361;52.100;5.248;2022-12-10T07:46:03;100886.0;;;1.23;100.0
39295;BME280;52361;52.100;5.248;2022-12-10T07:49:16;100890.0;;;1.14;100.0
39295;BME280;52361;52.100;5.248;2022-12-10T07:50:55;100891.0;;;1.25;100.0
39295;BME280;52361;52.100;5.248;2022-12-10T07:52:32;100889.0;;;1.28;100.0
39295;BME280;52361;52.100;5.248;2022-12-10T07:54:08;100892.0;;;1.18;100.0
39295;BME280;52361;52.100;5.248;2022-12-10T07:57:21;100891.0;;;1.26;100.0
39295;BME280;52361;52.100;5.248;2022-12-10T07:58:57;100895.0;;;1.27;100.0
39295;BME280;52361;52.100;5.248;2022-12-10T08:00:33;100892.0;;;1.15;100.0
39295;BME280;52361;52.100;5.248;2022-12-10T08:03:45;100886.0;;;1.16;100.0
39295;BME280;52361;52.100;5.248;2022-12-10T08:05:21;100882.0;;;1.05;100.0
39295;BME280;52361;52.100;5.248;2022-12-10T08:06:57;100882.0;;;1.05;100.0
39295;BME280;52361;52.100;5.248;2022-12-10T08:10:10;100884.0;;;1.06;100.0
39295;BME280;52361;52.100;5.248;2022-12-10T08:11:46;100885.0;;;1.18;100.0
39295;BME280;52361;52.100;5.248;2022-12-10T08:13:22;100883.0;;;1.22;100.0
39295;BME280;52361;52.100;5.248;2022-12-10T08:14:59;100885.0;;;1.1;100.0
39295;BME280;52361;52.100;5.248;2022-12-10T08:18:11;100889.0;;;1.05;100.0
39295;BME280;52361;52.100;5.248;2022-12-10T08:19:47;100890.0;;;1.21;100.0
39295;BME280;52361;52.100;5.248;2022-12-10T08:21:25;100889.0;;;1.24;100.0
39295;BME280;52361;52.100;5.248;2022-12-10T08:24:40;100889.0;;;1.2;100.0
39295;BME280;52361;52.100;5.248;2022-12-10T08:26:18;100895.0;;;1.17;100.0
39295;BME280;52361;52.100;5.248;2022-12-10T08:27:57;100895.0;;;1.11;100.0
39295;BME280;52361;52.100;5.248;2022-12-10T08:31:11;100900.0;;;1.16;100.0
39295;BME280;52361;52.100;5.248;2022-12-10T08:32:48;100905.0;;;1.28;100.0
39295;BME280;52361;52.100;5.248;2022-12-10T08:34:24;100910.0;;;1.17;100.0
39295;BME280;52361;52.100;5.248;2022-12-10T08:36:01;100912.0;;;1.15;100.0
39295;BME280;52361;52.100;5.248;2022-12-10T08:39:16;100915.0;;;1.16;100.0
39295;BME280;52361;52.100;5.248;2022-12-10T08:40:53;100917.0;;;1.01;100.0
39295;BME280;52361;52.100;5.248;2022-12-10T08:42:30;100920.0;;;1.03;100.0
39295;BME280;52361;52.100;5.248;2022-12-10T08:45:42;100926.0;;;1.08;100.0
39295;BME280;52361;52.100;5.248;2022-12-10T08:47:18;100930.0;;;1.11;100.0
39295;BME280;52361;52.100;5.248;2022-12-10T08:48:54;100933.0;;;1.19;100.0
39295;BME280;52361;52.100;5.248;2022-12-10T08:52:07;100934.0;;;1.26;100.0
39295;BME280;52361;52.100;5.248;2022-12-10T08:53:44;100936.0;;;1.17;100.0
39295;BME280;52361;52.100;5.248;2022-12-10T08:55:20;100936.0;;;1.16;100.0
39295;BME280;52361;52.100;5.248;2022-12-10T08:56:56;100936.0;;;1.25;100.0
39295;BME280;52361;52.100;5.248;2022-12-10T09:00:10;100937.0;;;1.24;100.0
39295;BME280;52361;52.100;5.248;2022-12-10T09:01:47;100941.0;;;1.22;100.0
39295;BME280;52361;52.100;5.248;2022-12-10T09:03:24;100945.0;;;1.15;100.0
39295;BME280;52361;52.100;5.248;2022-12-10T09:06:37;100951.0;;;1.17;100.0
39295;BME280;52361;52.100;5.248;2022-12-10T09:08:13;100950.0;;;1.14;100.0
39295;BME280;52361;52.100;5.248;2022-12-10T09:09:50;100960.0;;;0.94;100.0
39295;BME280;52361;52.100;5.248;2022-12-10T09:13:05;100956.0;;;1.05;100.0
39295;BME280;52361;52.100;5.248;2022-12-10T09:14:42;100961.0;;;0.99;100.0
39295;BME280;52361;52.100;5.248;2022-12-10T09:16:19;100961.0;;;0.91;100.0
39295;BME280;52361;52.100;5.248;2022-12-10T09:17:56;100958.0;;;0.86;100.0
39295;BME280;52361;52.100;5.248;2022-12-10T09:21:09;100961.0;;;0.88;100.0
39295;BME280;52361;52.100;5.248;2022-12-10T09:22:50;100966.0;;;0.95;100.0
39295;BME280;52361;52.100;5.248;2022-12-10T09:24:27;100965.0;;;0.82;100.0
39295;BME280;52361;52.100;5.248;2022-12-10T09:27:43;100967.0;;;0.92;100.0
39295;BME280;52361;52.100;5.248;2022-12-10T09:29:20;100971.0;;;1.0;100.0
39295;BME280;52361;52.100;5.248;2022-12-10T09:30:57;100973.0;;;1.01;100.0
39295;BME280;52361;52.100;5.248;2022-12-10T09:32:34;100973.0;;;1.11;100.0
39295;BME280;52361;52.100;5.248;2022-12-10T09:35:46;100980.0;;;1.14;100.0
39295;BME280;52361;52.100;5.248;2022-12-10T09:37:22;100980.0;;;1.1;100.0
39295;BME280;52361;52.100;5.248;2022-12-10T09:38:58;100977.0;;;1.07;100.0
39295;BME280;52361;52.100;5.248;2022-12-10T09:42:26;100978.0;;;0.91;100.0
39295;BME280;52361;52.100;5.248;2022-12-10T09:44:11;100980.0;;;1.0;100.0
39295;BME280;52361;52.100;5.248;2022-12-10T09:45:59;100982.0;;;0.97;100.0
39295;BME280;52361;52.100;5.248;2022-12-10T09:47:46;100981.0;;;0.96;100.0
39295;BME280;52361;52.100;5.248;2022-12-10T09:49:37;100984.0;;;1.04;100.0
39295;BME280;52361;52.100;5.248;2022-12-10T09:51:20;100981.0;;;1.01;100.0
39295;BME280;52361;52.100;5.248;2022-12-10T09:54:41;100980.0;;;1.04;100.0
39295;BME280;52361;52.100;5.248;2022-12-10T09:56:22;100981.0;;;1.08;100.0
39295;BME280;52361;52.100;5.248;2022-12-10T09:57:59;100980.0;;;1.24;100.0
39295;BME280;52361;52.100;5.248;2022-12-10T09:59:40;100986.0;;;1.19;100.0
39295;BME280;52361;52.100;5.248;2022-12-10T10:03:01;100987.0;;;1.19;100.0
39295;BME280;52361;52.100;5.248;2022-12-10T10:04:38;100986.0;;;1.24;100.0
39295;BME280;52361;52.100;5.248;2022-12-10T10:06:16;100985.0;;;1.34;100.0
39295;BME280;52361;52.100;5.248;2022-12-10T10:09:38;100985.0;;;1.41;100.0
39295;BME280;52361;52.100;5.248;2022-12-10T10:11:19;100991.0;;;1.42;100.0
39295;BME280;52361;52.100;5.248;2022-12-10T10:12:58;100992.0;;;1.36;100.0
39295;BME280;52361;52.100;5.248;2022-12-10T10:14:37;100989.0;;;1.27;100.0
39295;BME280;52361;52.100;5.248;2022-12-10T10:18:02;100989.0;;;1.33;100.0
39295;BME280;52361;52.100;5.248;2022-12-10T10:19:42;100990.0;;;1.31;100.0
39295;BME280;52361;52.100;5.248;2022-12-10T10:21:22;100988.0;;;1.21;100.0
39295;BME280;52361;52.100;5.248;2022-12-10T10:22:59;100989.0;;;1.36;100.0
39295;BME280;52361;52.100;5.248;2022-12-10T10:26:16;100989.0;;;1.29;100.0
39295;BME280;52361;52.100;5.248;2022-12-10T10:27:53;100993.0;;;1.24;100.0
39295;BME280;52361;52.100;5.248;2022-12-10T10:29:29;100997.0;;;1.3;100.0
39295;BME280;52361;52.100;5.248;2022-12-10T10:31:15;100990.0;;;1.29;100.0
39295;BME280;52361;52.100;5.248;2022-12-10T10:34:33;100994.0;;;1.3;100.0
39295;BME280;52361;52.100;5.248;2022-12-10T10:36:09;100997.0;;;1.33;100.0
39295;BME280;52361;52.100;5.248;2022-12-10T10:37:46;100992.0;;;1.28;100.0
39295;BME280;52361;52.100;5.248;2022-12-10T10:39:27;100994.0;;;1.4;100.0
39295;BME280;52361;52.100;5.248;2022-12-10T10:42:43;100993.0;;;1.24;100.0
39295;BME280;52361;52.100;5.248;2022-12-10T10:44:22;100989.0;;;1.29;100.0
39295;BME280;52361;52.100;5.248;2022-12-10T10:46:02;100994.0;;;1.21;100.0
39295;BME280;52361;52.100;5.248;2022-12-10T10:47:42;100990.0;;;1.29;100.0
39295;BME280;52361;52.100;5.248;2022-12-10T10:51:06;100995.0;;;1.4;100.0
39295;BME280;52361;52.100;5.248;2022-12-10T10:52:43;100996.0;;;1.26;100.0
39295;BME280;52361;52.100;5.248;2022-12-10T10:54:32;100997.0;;;1.26;100.0
39295;BME280;52361;52.100;5.248;2022-12-10T10:56:18;100998.0;;;1.21;100.0
39295;BME280;52361;52.100;5.248;2022-12-10T10:59:35;100997.0;;;1.28;100.0
39295;BME280;52361;52.100;5.248;2022-12-10T11:01:11;100999.0;;;1.28;100.0
39295;BME280;52361;52.100;5.248;2022-12-10T11:02:48;100996.0;;;1.27;100.0
39295;BME280;52361;52.100;5.248;2022-12-10T11:06:07;100998.0;;;1.47;100.0
39295;BME280;52361;52.100;5.248;2022-12-10T11:07:43;100997.0;;;1.38;100.0
39295;BME280;52361;52.100;5.248;2022-12-10T11:09:21;100994.0;;;1.48;100.0
39295;BME280;52361;52.100;5.248;2022-12-10T11:11:04;100995.0;;;1.51;100.0
39295;BME280;52361;52.100;5.248;2022-12-10T11:14:30;100991.0;;;1.52;100.0
39295;BME280;52361;52.100;5.248;2022-12-10T11:16:12;100997.0;;;1.49;100.0
39295;BME280;52361;52.100;5.248;2022-12-10T11:17:55;100994.0;;;1.55;100.0
39295;BME280;52361;52.100;5.248;2022-12-10T11:19:31;100992.0;;;1.37;100.0
39295;BME280;52361;52.100;5.248;2022-12-10T11:22:55;100994.0;;;1.47;100.0
39295;BME280;52361;52.100;5.248;2022-12-10T11:24:32;100994.0;;;1.54;100.0
39295;BME280;52361;52.100;5.248;2022-12-10T11:26:18;100992.0;;;1.52;100.0
39295;BME280;52361;52.100;5.248;2022-12-10T11:28:10;100992.0;;;1.52;100.0
39295;BME280;52361;52.100;5.248;2022-12-10T11:29:57;100986.0;;;1.52;100.0
39295;BME280;52361;52.100;5.248;2022-12-10T11:31:47;100981.0;;;1.57;100.0